Time;durP1;ratioP1;P1;durP2;ratioP2;P2;SDS_P1;SDS_P2;PMS_P1;PMS_P2;Temp;Humidity;BMP_temperature;BMP_pressure;BME280_temperature;BME280_humidity;BME280_pressure;Samples;Min_cycle;Max_cycle;Signal;HPM_P1;HPM_P2
2022/08/11 00:00:31;;;;;;;;;;;;;;;30.17;24.93;99604.25;4513423;31;34058;-84
2022/08/11 00:03:02;;;;;;;;;;;;;;;28.32;26.62;99609.38;4500441;31;34978;-84
2022/08/11 00:05:29;;;;;;;;;;;;;;;28.85;26.82;99608.31;4499332;31;34690;-83
2022/08/11 00:07:56;;;;;;;;;;;;;;;29.50;26.01;99601.03;4499220;31;33374;-84
2022/08/11 00:10:25;;;;;;;;;;;;;;;29.76;25.84;99606.69;4485151;31;35125;-82
2022/08/11 00:12:55;;;;;;;;;;;;;;;29.75;25.79;99605.00;4511460;31;35508;-83
2022/08/11 00:15:23;;;;;;;;;;;;;;;29.24;26.03;99599.88;4515254;31;34944;-82
2022/08/11 00:17:55;;;;;;;;;;;;;;;29.54;25.88;99596.37;4511472;31;34114;-81
2022/08/11 00:20:23;;;;;;;;;;;;;;;29.29;25.67;99595.16;4502997;31;34203;-84
2022/08/11 00:22:51;;;;;;;;;;;;;;;29.25;25.75;99590.09;4505767;31;34343;-83
2022/08/11 00:25:19;;;;;;;;;;;;;;;29.41;25.89;99590.06;4513892;31;34283;-82
2022/08/11 00:27:46;;;;;;;;;;;;;;;29.77;26.06;99587.03;4513916;31;34505;-84
2022/08/11 00:30:14;;;;;;;;;;;;;;;29.76;26.06;99579.97;4514083;31;34228;-84
2022/08/11 00:32:42;;;;;;;;;;;;;;;29.94;25.74;99573.53;4513885;31;34381;-83
2022/08/11 00:35:11;;;;;;;;;;;;;;;29.96;25.84;99582.31;4500945;31;34322;-83
2022/08/11 00:37:58;;;;;;;;;;;;;;;29.95;25.74;99582.41;4511702;31;34238;-85
2022/08/11 00:40:44;;;;;;;;;;;;;;;29.22;26.88;99580.44;4504971;31;34241;-84
2022/08/11 00:43:14;;;;;;;;;;;;;;;29.53;26.57;99576.81;4513446;31;35325;-83
2022/08/11 00:46:05;;;;;;;;;;;;;;;29.69;26.30;99578.62;4501115;31;34316;-84
2022/08/11 00:48:35;;;;;;;;;;;;;;;29.45;26.63;99580.91;4499092;31;33491;-82
2022/08/11 00:51:13;;;;;;;;;;;;;;;29.46;26.77;99577.28;4497953;31;33881;-83
2022/08/11 00:53:43;;;;;;;;;;;;;;;29.34;26.23;99579.72;4500066;31;35272;-84
2022/08/11 00:56:21;;;;;;;;;;;;;;;29.33;26.25;99580.66;4504649;31;34081;-91
2022/08/11 00:58:58;;;;;;;;;;;;;;;29.54;26.24;99565.19;4500794;31;34101;-84
2022/08/11 01:01:27;;;;;;;;;;;;;;;29.35;26.30;99572.56;4505357;31;33878;-83
2022/08/11 01:04:00;;;;;;;;;;;;;;;29.29;26.31;99575.59;4508451;31;34059;-83
2022/08/11 01:06:37;;;;;;;;;;;;;;;28.88;26.70;99572.59;4515160;31;33769;-84
2022/08/11 01:09:09;;;;;;;;;;;;;;;28.94;26.83;99572.22;4487685;31;33546;-84
2022/08/11 01:11:52;;;;;;;;;;;;;;;29.07;26.74;99571.47;4515141;31;34897;-86
2022/08/11 01:14:41;;;;;;;;;;;;;;;29.21;26.11;99564.47;4514278;31;34462;-83
2022/08/11 01:17:28;;;;;;;;;;;;;;;29.25;26.25;99571.38;4514764;31;34164;-90
2022/08/11 01:19:57;;;;;;;;;;;;;;;29.28;26.22;99564.06;4515098;31;33765;-84
2022/08/11 01:22:54;;;;;;;;;;;;;;;29.19;26.41;99566.37;4499093;31;35038;-83
2022/08/11 01:25:39;;;;;;;;;;;;;;;29.26;26.42;99567.75;4499022;31;35122;-84
2022/08/11 01:28:43;;;;;;;;;;;;;;;28.97;26.45;99570.25;4486994;31;34252;-83
2022/08/11 01:31:20;;;;;;;;;;;;;;;27.96;27.65;99562.41;4506251;31;33444;-85
2022/08/11 01:34:02;;;;;;;;;;;;;;;28.78;26.58;99562.41;4499884;31;35305;-84
2022/08/11 01:36:36;;;;;;;;;;;;;;;28.00;27.67;99560.44;4500571;31;35100;-84
2022/08/11 01:39:14;;;;;;;;;;;;;;;28.49;27.33;99558.72;4508059;31;34013;-83
2022/08/11 01:44:51;;;;;;;;;;;;;;;28.33;27.58;99553.28;4514752;31;33484;-82
2022/08/11 01:50:23;;;;;;;;;;;;;;;28.97;26.95;99559.56;4496421;31;33690;-82
2022/08/11 01:52:56;;;;;;;;;;;;;;;29.12;26.19;99555.19;4498614;31;33388;-87
2022/08/11 01:55:27;;;;;;;;;;;;;;;28.70;26.88;99553.13;4510014;31;34025;-82
2022/08/11 01:58:01;;;;;;;;;;;;;;;28.92;26.60;99558.97;4511834;31;34202;-85
2022/08/11 02:00:30;;;;;;;;;;;;;;;28.97;26.77;99550.69;4508000;31;34669;-85
2022/08/11 02:03:10;;;;;;;;;;;;;;;28.97;26.45;99554.22;4503803;31;33269;-84
2022/08/11 02:05:47;;;;;;;;;;;;;;;28.73;27.06;99553.81;4518055;31;33911;-86
2022/08/11 02:08:42;;;;;;;;;;;;;;;28.64;26.93;99553.44;4518827;31;35276;-85
2022/08/11 02:11:35;;;;;;;;;;;;;;;28.88;27.14;99545.91;4482264;31;34006;-85
2022/08/11 02:14:27;;;;;;;;;;;;;;;28.89;26.72;99545.81;4503654;31;34650;-84
2022/08/11 02:17:01;;;;;;;;;;;;;;;28.85;26.73;99546.91;4513230;31;34193;-84
2022/08/11 02:25:28;;;;;;;;;;;;;;;28.55;27.18;99544.16;4503449;31;33688;-84
2022/08/11 02:27:56;;;;;;;;;;;;;;;28.81;26.58;99546.22;4511677;31;34005;-84
2022/08/11 02:30:26;;;;;;;;;;;;;;;28.64;26.92;99543.66;4503124;31;34883;-85
2022/08/11 02:35:46;;;;;;;;;;;;;;;28.59;27.17;99546.56;4506232;31;33181;-85
2022/08/11 02:38:24;;;;;;;;;;;;;;;29.00;26.43;99542.56;4519019;31;33800;-85
2022/08/11 02:40:53;;;;;;;;;;;;;;;28.61;27.30;99542.03;4505107;31;34796;-84
2022/08/11 02:43:25;;;;;;;;;;;;;;;28.36;27.14;99534.47;4503248;31;34982;-84
2022/08/11 02:45:54;;;;;;;;;;;;;;;28.36;27.68;99530.94;4508099;31;33534;-85
2022/08/11 02:51:13;;;;;;;;;;;;;;;28.51;27.16;99538.13;4518696;31;34105;-85
2022/08/11 02:53:54;;;;;;;;;;;;;;;28.66;27.38;99530.22;4517768;31;34218;-85
2022/08/11 02:56:31;;;;;;;;;;;;;;;28.56;27.61;99528.09;4517927;31;34294;-85
2022/08/11 03:01:55;;;;;;;;;;;;;;;28.45;27.35;99533.16;4518711;31;34886;-85
2022/08/11 03:04:50;;;;;;;;;;;;;;;28.72;27.30;99537.91;4515338;31;34381;-85
2022/08/11 03:07:21;;;;;;;;;;;;;;;28.74;27.55;99542.19;4518756;31;33584;-83
2022/08/11 03:10:05;;;;;;;;;;;;;;;29.03;27.24;99535.25;4514306;31;34271;-83
2022/08/11 03:18:17;;;;;;;;;;;;;;;29.05;27.37;99546.66;4514797;31;33082;-84
2022/08/11 03:20:50;;;;;;;;;;;;;;;28.71;27.62;99546.81;4515603;31;35014;-84
2022/08/11 03:23:36;;;;;;;;;;;;;;;28.82;27.53;99550.63;4510078;31;35167;-85
2022/08/11 03:26:14;;;;;;;;;;;;;;;29.02;27.22;99544.19;4499869;31;34133;-84
2022/08/11 03:28:50;;;;;;;;;;;;;;;28.90;27.25;99543.97;4498331;31;34134;-84
2022/08/11 03:31:23;;;;;;;;;;;;;;;28.98;27.31;99544.44;4511415;31;34040;-84
2022/08/11 03:34:02;;;;;;;;;;;;;;;28.50;27.96;99541.75;4514999;31;34327;-84
2022/08/11 03:36:51;;;;;;;;;;;;;;;28.69;27.82;99548.75;4514338;31;34976;-84
2022/08/11 03:39:44;;;;;;;;;;;;;;;28.67;27.90;99553.28;4514340;31;34431;-85
2022/08/11 03:42:26;;;;;;;;;;;;;;;28.16;28.39;99547.16;4515526;31;35442;-84
2022/08/11 03:45:09;;;;;;;;;;;;;;;28.05;29.12;99548.59;4511107;31;34486;-84
2022/08/11 03:47:55;;;;;;;;;;;;;;;28.53;28.36;99543.41;4515587;31;34058;-84
2022/08/11 03:50:31;;;;;;;;;;;;;;;28.82;27.82;99545.28;4515017;31;33247;-85
2022/08/11 03:53:04;;;;;;;;;;;;;;;28.18;28.50;99547.94;4515584;31;34265;-84
2022/08/11 03:55:44;;;;;;;;;;;;;;;28.05;28.78;99545.91;4511169;31;34151;-84
2022/08/11 03:58:21;;;;;;;;;;;;;;;28.73;28.33;99552.97;4515381;31;34636;-85
2022/08/11 04:00:51;;;;;;;;;;;;;;;28.20;28.78;99549.56;4515245;31;34170;-84
2022/08/11 04:03:24;;;;;;;;;;;;;;;28.31;28.99;99546.34;4515405;31;34346;-84
2022/08/11 04:06:16;;;;;;;;;;;;;;;28.73;28.62;99556.47;4515360;31;34177;-84
2022/08/11 04:08:50;;;;;;;;;;;;;;;28.50;28.92;99544.41;4515465;31;34806;-85
2022/08/11 04:11:20;;;;;;;;;;;;;;;28.50;29.15;99552.41;4513263;31;34142;-84
2022/08/11 04:17:12;;;;;;;;;;;;;;;28.97;28.03;99553.38;4498252;31;34235;-85
2022/08/11 04:19:49;;;;;;;;;;;;;;;29.06;28.09;99553.75;4514363;31;33981;-84
2022/08/11 04:22:37;;;;;;;;;;;;;;;29.03;28.10;99548.59;4514873;31;33232;-84
2022/08/11 04:25:05;;;;;;;;;;;;;;;29.04;28.10;99555.62;4502039;31;35143;-84
2022/08/11 04:27:51;;;;;;;;;;;;;;;28.61;28.68;99560.69;4503917;31;34347;-84
2022/08/11 04:30:27;;;;;;;;;;;;;;;28.40;28.73;99559.19;4514471;31;34315;-85
2022/08/11 04:33:09;;;;;;;;;;;;;;;28.59;28.50;99559.03;4514284;31;33045;-85
2022/08/11 04:35:54;;;;;;;;;;;;;;;28.43;28.70;99563.50;4514051;31;34975;-85
2022/08/11 04:38:25;;;;;;;;;;;;;;;28.88;27.91;99565.44;4514922;31;34376;-85
2022/08/11 04:41:13;;;;;;;;;;;;;;;29.27;27.18;99566.81;4514851;31;34240;-85
2022/08/11 04:43:56;;;;;;;;;;;;;;;29.52;27.67;99563.56;4515153;31;34825;-85
2022/08/11 04:46:41;;;;;;;;;;;;;;;29.22;27.22;99568.88;4515189;31;35075;-84
2022/08/11 05:04:03;;;;;;;;;;;;;;;30.32;25.87;99567.69;4514976;31;33834;-85
2022/08/11 05:06:40;;;;;;;;;;;;;;;31.17;24.82;99566.69;4514723;31;33561;-85
2022/08/11 05:09:16;;;;;;;;;;;;;;;31.61;24.39;99560.19;4514353;31;34267;-85
2022/08/11 05:12:02;;;;;;;;;;;;;;;31.56;23.76;99557.00;4515132;31;34359;-85
2022/08/11 05:34:50;;;;;;;;;;;;;;;31.86;23.81;99585.34;4513784;31;34140;-85
2022/08/11 05:37:24;;;;;;;;;;;;;;;32.14;23.02;99576.28;4511596;31;34128;-86
2022/08/11 05:57:20;;;;;;;;;;;;;;;31.85;23.64;99584.50;4503837;31;34469;-84
2022/08/11 06:00:09;;;;;;;;;;;;;;;31.83;23.44;99581.03;4497321;31;36882;-85
2022/08/11 06:02:40;;;;;;;;;;;;;;;32.24;23.06;99580.03;4497260;31;33258;-85
2022/08/11 06:05:08;;;;;;;;;;;;;;;30.93;24.68;99589.72;4497364;31;34230;-86
2022/08/11 06:07:36;;;;;;;;;;;;;;;29.40;26.21;99594.53;4499320;31;35824;-85
2022/08/11 06:10:28;;;;;;;;;;;;;;;29.54;25.60;99597.25;4511396;31;33638;-85
2022/08/11 06:12:56;;;;;;;;;;;;;;;30.62;24.47;99591.66;4508558;31;33525;-84
2022/08/11 06:15:23;;;;;;;;;;;;;;;29.22;26.35;99590.25;4496787;31;35036;-85
2022/08/11 06:17:50;;;;;;;;;;;;;;;29.37;26.10;99596.53;4497318;31;34336;-85
2022/08/11 06:20:18;;;;;;;;;;;;;;;29.42;26.55;99599.78;4500102;31;34214;-86
2022/08/11 06:22:46;;;;;;;;;;;;;;;30.56;24.93;99593.84;4511132;31;33683;-86
2022/08/11 06:25:19;;;;;;;;;;;;;;;29.74;25.62;99597.94;4513918;31;33798;-85
2022/08/11 06:27:47;;;;;;;;;;;;;;;28.70;26.68;99587.81;4496674;31;34081;-85
2022/08/11 06:30:14;;;;;;;;;;;;;;;29.62;25.79;99587.94;4496853;31;33880;-84
2022/08/11 06:32:43;;;;;;;;;;;;;;;29.52;25.62;99588.47;4513821;31;33267;-85
2022/08/11 06:35:25;;;;;;;;;;;;;;;30.15;25.08;99584.72;4512190;31;33522;-85
2022/08/11 06:38:02;;;;;;;;;;;;;;;29.41;25.93;99588.22;4512538;31;34593;-85
2022/08/11 06:40:36;;;;;;;;;;;;;;;30.16;25.24;99594.50;4513616;31;35086;-85
2022/08/11 06:43:03;;;;;;;;;;;;;;;29.93;24.87;99592.31;4497942;31;33398;-86
2022/08/11 06:45:39;;;;;;;;;;;;;;;29.39;25.34;99595.47;4513084;31;35061;-84
2022/08/11 06:48:13;;;;;;;;;;;;;;;30.42;23.87;99584.00;4515903;31;35283;-85
2022/08/11 06:53:26;;;;;;;;;;;;;;;28.71;26.28;99593.03;4514919;31;32793;-84
2022/08/11 07:01:27;;;;;;;;;;;;;;;29.23;25.77;99587.47;4513410;31;34058;-85
2022/08/11 07:03:57;;;;;;;;;;;;;;;29.94;24.76;99586.91;4515942;31;33472;-84
2022/08/11 07:06:32;;;;;;;;;;;;;;;29.99;24.58;99584.78;4514673;31;33755;-84
2022/08/11 07:15:43;;;;;;;;;;;;;;;29.31;25.01;99582.56;4515642;31;34805;-84
2022/08/11 07:30:16;;;;;;;;;;;;;;;30.86;22.96;99567.81;4514743;31;33811;-85
2022/08/11 07:32:45;;;;;;;;;;;;;;;30.03;23.63;99577.44;4515425;31;34529;-85
2022/08/11 07:35:15;;;;;;;;;;;;;;;29.49;23.93;99577.97;4513791;31;34462;-84
2022/08/11 07:37:52;;;;;;;;;;;;;;;29.54;23.59;99585.69;4514413;31;33486;-85
2022/08/11 07:40:29;;;;;;;;;;;;;;;29.30;24.62;99588.00;4503949;31;33958;-86
2022/08/11 07:42:56;;;;;;;;;;;;;;;30.58;23.70;99568.72;4501952;31;33609;-85
2022/08/11 07:53:42;;;;;;;;;;;;;;;29.09;24.66;99569.59;4508587;31;34266;-84
2022/08/11 07:56:31;;;;;;;;;;;;;;;29.84;23.19;99564.34;4498255;31;35088;-90
2022/08/11 08:19:03;;;;;;;;;;;;;;;29.84;22.81;99548.31;4502731;31;32926;-86
2022/08/11 08:21:31;;;;;;;;;;;;;;;29.95;22.18;99547.66;4504388;31;34182;-86
2022/08/11 08:23:58;;;;;;;;;;;;;;;29.88;22.75;99548.97;4515263;31;35432;-87
2022/08/11 08:32:04;;;;;;;;;;;;;;;30.46;22.56;99553.44;4498405;31;33408;-87
2022/08/11 08:34:32;;;;;;;;;;;;;;;30.98;21.60;99548.28;4499591;31;35177;-86
2022/08/11 08:36:59;;;;;;;;;;;;;;;31.38;21.37;99556.41;4498400;31;35344;-87
2022/08/11 08:39:27;;;;;;;;;;;;;;;31.16;22.10;99551.56;4499608;31;33829;-85
2022/08/11 08:41:56;;;;;;;;;;;;;;;31.16;22.12;99545.34;4505490;31;33328;-86
2022/08/11 08:44:24;;;;;;;;;;;;;;;30.86;23.54;99550.91;4514033;31;34285;-86
2022/08/11 08:47:14;;;;;;;;;;;;;;;30.93;22.93;99547.72;4509838;31;35284;-86
2022/08/11 08:50:02;;;;;;;;;;;;;;;30.93;22.89;99537.03;4505119;31;34931;-85
2022/08/11 08:52:34;;;;;;;;;;;;;;;31.33;22.58;99538.91;4514092;31;33521;-84
2022/08/11 08:55:06;;;;;;;;;;;;;;;31.58;22.55;99541.66;4506314;31;34401;-83
2022/08/11 08:57:34;;;;;;;;;;;;;;;31.34;22.66;99541.50;4511795;31;34497;-84
2022/08/11 09:00:06;;;;;;;;;;;;;;;31.26;22.88;99535.75;4515271;31;33669;-89
2022/08/11 09:02:35;;;;;;;;;;;;;;;31.44;21.54;99536.34;4500209;31;34106;-86
2022/08/11 09:05:03;;;;;;;;;;;;;;;31.15;22.27;99541.81;4498174;31;33640;-85
2022/08/11 09:07:31;;;;;;;;;;;;;;;31.90;20.83;99526.06;4501837;31;34382;-89
2022/08/11 09:10:07;;;;;;;;;;;;;;;31.74;21.84;99520.00;4501117;31;34687;-85
2022/08/11 09:12:35;;;;;;;;;;;;;;;32.06;21.50;99527.69;4506185;31;34254;-85
2022/08/11 09:15:07;;;;;;;;;;;;;;;32.26;21.37;99520.91;4508240;31;34314;-89
2022/08/11 09:17:49;;;;;;;;;;;;;;;31.67;21.58;99516.91;4513352;31;34029;-88
2022/08/11 09:20:27;;;;;;;;;;;;;;;32.37;21.77;99516.47;4512155;31;34463;-89
2022/08/11 09:28:57;;;;;;;;;;;;;;;32.21;21.65;99507.81;4513685;31;34061;-88
2022/08/11 09:31:25;;;;;;;;;;;;;;;32.62;20.09;99512.91;4514462;31;35091;-87
2022/08/11 09:33:53;;;;;;;;;;;;;;;32.39;20.66;99509.19;4513308;31;33072;-88
2022/08/11 09:41:53;;;;;;;;;;;;;;;31.07;21.51;99500.47;4513712;31;34062;-88
2022/08/11 09:44:47;;;;;;;;;;;;;;;31.18;21.62;99506.81;4514542;31;33562;-87
2022/08/11 09:47:25;;;;;;;;;;;;;;;31.07;21.96;99489.75;4514834;31;34269;-92
2022/08/11 09:49:54;;;;;;;;;;;;;;;31.85;21.87;99487.09;4513382;31;34436;-88
2022/08/11 09:52:22;;;;;;;;;;;;;;;32.06;20.68;99484.75;4514665;31;33915;-89
2022/08/11 09:54:49;;;;;;;;;;;;;;;31.84;21.17;99490.75;4513677;31;33091;-88
2022/08/11 10:00:08;;;;;;;;;;;;;;;31.85;20.86;99487.97;4513377;31;34208;-88
2022/08/11 10:02:44;;;;;;;;;;;;;;;31.71;20.06;99480.03;4514332;31;34138;-90
2022/08/11 10:08:02;;;;;;;;;;;;;;;32.73;18.48;99474.50;4513099;31;33952;-89
2022/08/11 10:10:29;;;;;;;;;;;;;;;32.66;17.46;99470.59;4513149;31;34355;-89
2022/08/11 10:12:58;;;;;;;;;;;;;;;31.59;18.21;99486.22;4512933;31;34261;-88
2022/08/11 10:15:37;;;;;;;;;;;;;;;31.40;19.04;99478.59;4512706;31;33594;-89
2022/08/11 10:21:04;;;;;;;;;;;;;;;32.62;17.83;99469.09;4515349;31;34423;-88
2022/08/11 10:26:53;;;;;;;;;;;;;;;31.92;19.61;99462.44;4515519;31;33853;-88
2022/08/11 10:35:29;;;;;;;;;;;;;;;31.67;20.65;99455.25;4515054;31;33648;-88
2022/08/11 10:37:57;;;;;;;;;;;;;;;31.83;19.62;99447.00;4515199;31;34259;-92
2022/08/11 10:40:39;;;;;;;;;;;;;;;31.77;19.26;99450.09;4516027;31;34588;-87
2022/08/11 10:43:09;;;;;;;;;;;;;;;31.52;20.43;99447.41;4514746;31;34318;-88
2022/08/11 10:48:24;;;;;;;;;;;;;;;31.68;19.75;99440.03;4516163;31;32975;-88
2022/08/11 10:59:12;;;;;;;;;;;;;;;32.18;18.21;99440.97;4514938;31;33470;-85
2022/08/11 11:01:42;;;;;;;;;;;;;;;32.43;19.24;99432.03;4514658;31;34421;-86
2022/08/11 11:04:11;;;;;;;;;;;;;;;32.54;18.33;99436.56;4514751;31;35237;-85
2022/08/11 11:06:45;;;;;;;;;;;;;;;32.57;18.31;99429.16;4516062;31;35057;-87
2022/08/11 11:09:16;;;;;;;;;;;;;;;32.98;17.60;99435.13;4516000;31;33180;-88
2022/08/11 11:20:21;;;;;;;;;;;;;;;31.01;19.57;99416.03;4514798;31;33460;-86
2022/08/11 11:23:05;;;;;;;;;;;;;;;31.90;18.22;99416.13;4515800;31;34818;-86
2022/08/11 11:25:36;;;;;;;;;;;;;;;32.57;18.10;99404.16;4515780;31;34517;-87
2022/08/11 11:28:24;;;;;;;;;;;;;;;32.51;17.63;99399.25;4514149;31;35017;-87
2022/08/11 11:31:03;;;;;;;;;;;;;;;33.28;17.90;99395.16;4515062;31;33209;-86
2022/08/11 11:33:30;;;;;;;;;;;;;;;32.30;16.63;99394.44;4515602;31;35050;-87
2022/08/11 11:36:06;;;;;;;;;;;;;;;33.14;16.30;99379.25;4515675;31;35364;-87
2022/08/11 11:38:33;;;;;;;;;;;;;;;31.76;15.55;99392.09;4514379;31;34668;-86
2022/08/11 11:43:47;;;;;;;;;;;;;;;32.07;15.30;99376.50;4515542;31;34367;-86
2022/08/11 11:46:14;;;;;;;;;;;;;;;31.53;16.51;99385.69;4515656;31;35163;-87
2022/08/11 11:48:41;;;;;;;;;;;;;;;31.76;16.77;99381.38;4514428;31;34124;-87
2022/08/11 11:51:12;;;;;;;;;;;;;;;31.63;16.12;99378.72;4515732;31;34278;-87
2022/08/11 11:53:44;;;;;;;;;;;;;;;31.62;16.61;99384.16;4514196;31;34250;-86
2022/08/11 11:56:11;;;;;;;;;;;;;;;32.22;16.62;99378.06;4514247;31;34040;-87
2022/08/11 12:01:27;;;;;;;;;;;;;;;32.13;16.55;99374.25;4515627;31;33081;-87
2022/08/11 12:03:54;;;;;;;;;;;;;;;32.63;17.53;99353.56;4515173;31;34330;-86
2022/08/11 12:06:22;;;;;;;;;;;;;;;32.61;17.52;99360.00;4514028;31;33966;-87
2022/08/11 12:08:50;;;;;;;;;;;;;;;32.68;17.88;99353.19;4515315;31;34945;-87
2022/08/11 12:14:05;;;;;;;;;;;;;;;33.23;16.11;99349.00;4512471;31;35021;-89
2022/08/11 12:16:40;;;;;;;;;;;;;;;33.55;15.83;99348.31;4504071;31;34078;-93
2022/08/11 12:19:16;;;;;;;;;;;;;;;32.40;17.17;99349.06;4514548;31;34168;-85
2022/08/11 12:27:21;;;;;;;;;;;;;;;31.95;17.60;99354.13;4488174;31;34257;-88
2022/08/11 12:30:07;;;;;;;;;;;;;;;31.71;17.32;99346.00;4514212;31;35048;-87
2022/08/11 12:32:35;;;;;;;;;;;;;;;31.01;18.08;99341.91;4491659;31;32988;-89
2022/08/11 12:35:03;;;;;;;;;;;;;;;32.64;17.86;99335.63;4498696;31;34848;-88
2022/08/11 12:37:49;;;;;;;;;;;;;;;31.77;17.80;99344.69;4508296;31;34452;-85
2022/08/11 12:46:11;;;;;;;;;;;;;;;32.54;17.60;99329.22;4514225;31;34039;-86
2022/08/11 12:54:38;;;;;;;;;;;;;;;31.80;18.34;99323.03;4498178;31;33674;-86
2022/08/11 13:05:36;;;;;;;;;;;;;;;32.29;17.66;99324.81;4502030;31;32241;-84
2022/08/11 13:08:13;;;;;;;;;;;;;;;32.51;17.34;99318.75;4513956;31;34937;-86
2022/08/11 13:13:27;;;;;;;;;;;;;;;33.02;17.85;99305.84;4514742;31;34312;-86
2022/08/11 13:16:14;;;;;;;;;;;;;;;32.87;16.92;99305.16;4508098;31;34253;-86
2022/08/11 13:18:42;;;;;;;;;;;;;;;33.11;17.68;99301.56;4507986;31;34444;-86
2022/08/11 13:21:12;;;;;;;;;;;;;;;32.34;17.79;99318.13;4507794;31;35356;-86
2022/08/11 13:23:53;;;;;;;;;;;;;;;32.48;16.77;99303.72;4505188;31;34054;-87
2022/08/11 13:26:34;;;;;;;;;;;;;;;32.96;17.49;99298.28;4513590;31;33192;-87
2022/08/11 13:29:17;;;;;;;;;;;;;;;33.03;17.53;99290.56;4486472;31;34138;-87
2022/08/11 13:31:44;;;;;;;;;;;;;;;31.89;18.32;99299.09;4511991;31;34251;-86
2022/08/11 13:34:12;;;;;;;;;;;;;;;32.92;17.78;99286.88;4514764;31;33941;-85
2022/08/11 13:36:39;;;;;;;;;;;;;;;32.54;17.76;99280.91;4513512;31;34374;-90
2022/08/11 13:39:06;;;;;;;;;;;;;;;32.17;18.58;99284.53;4512413;31;33888;-86
2022/08/11 13:41:37;;;;;;;;;;;;;;;32.83;17.96;99278.69;4506817;31;35135;-87
2022/08/11 13:44:06;;;;;;;;;;;;;;;32.88;17.55;99279.16;4502085;31;34169;-85
2022/08/11 13:46:33;;;;;;;;;;;;;;;32.31;18.39;99280.78;4512412;31;33630;-86
2022/08/11 13:49:01;;;;;;;;;;;;;;;32.57;18.10;99280.69;4514507;31;34866;-87
2022/08/11 13:51:34;;;;;;;;;;;;;;;33.03;18.19;99274.47;4501689;31;34079;-88
2022/08/11 13:54:04;;;;;;;;;;;;;;;33.30;17.32;99279.47;4511209;31;34161;-84
2022/08/11 13:56:33;;;;;;;;;;;;;;;33.05;17.21;99272.53;4513900;31;33069;-86
2022/08/11 13:59:01;;;;;;;;;;;;;;;32.67;18.35;99277.19;4513502;31;34804;-85
2022/08/11 14:01:30;;;;;;;;;;;;;;;33.06;17.79;99271.53;4514349;31;34232;-86
2022/08/11 14:04:38;;;;;;;;;;;;;;;31.91;19.70;99275.72;4514178;31;32647;-86
2022/08/11 14:07:06;;;;;;;;;;;;;;;32.17;19.59;99271.13;4503536;31;33269;-86
2022/08/11 14:09:38;;;;;;;;;;;;;;;31.09;21.10;99279.78;4513031;31;33964;-86
2022/08/11 14:15:02;;;;;;;;;;;;;;;32.17;20.19;99276.47;4506059;31;33811;-85
2022/08/11 14:17:35;;;;;;;;;;;;;;;31.67;20.46;99290.88;4511712;31;33494;-86
2022/08/11 14:20:15;;;;;;;;;;;;;;;31.96;20.00;99281.59;4513057;31;34231;-85
2022/08/11 14:23:03;;;;;;;;;;;;;;;32.26;19.58;99280.28;4513029;31;35067;-86
2022/08/11 14:25:30;;;;;;;;;;;;;;;32.05;19.79;99276.50;4499233;31;33705;-85
2022/08/11 14:28:17;;;;;;;;;;;;;;;32.60;19.45;99277.75;4513327;31;34166;-89
2022/08/11 14:31:01;;;;;;;;;;;;;;;32.04;19.95;99266.75;4512773;31;34193;-85
2022/08/11 14:33:29;;;;;;;;;;;;;;;32.61;19.00;99274.09;4512387;31;33923;-86
2022/08/11 14:36:17;;;;;;;;;;;;;;;32.69;19.55;99272.56;4512997;31;34593;-85
2022/08/11 14:38:44;;;;;;;;;;;;;;;32.75;19.40;99259.63;4512582;31;34453;-85
2022/08/11 14:49:36;;;;;;;;;;;;;;;33.09;19.55;99260.56;4509850;31;33395;-84
2022/08/11 14:52:22;;;;;;;;;;;;;;;32.52;19.10;99261.41;4508069;31;35143;-85
2022/08/11 14:57:37;;;;;;;;;;;;;;;33.01;18.76;99268.38;4512548;31;34117;-86
2022/08/11 15:00:22;;;;;;;;;;;;;;;33.48;18.73;99261.91;4502039;31;33265;-91
2022/08/11 15:03:11;;;;;;;;;;;;;;;33.45;19.14;99263.97;4504236;31;34959;-85
2022/08/11 15:05:42;;;;;;;;;;;;;;;33.69;19.11;99255.81;4512865;31;35462;-85
2022/08/11 15:14:02;;;;;;;;;;;;;;;33.24;18.71;99259.34;4513486;31;34201;-85
2022/08/11 15:19:15;;;;;;;;;;;;;;;33.31;19.08;99257.88;4505024;31;34061;-91
2022/08/11 15:24:29;;;;;;;;;;;;;;;32.22;19.60;99258.19;4515487;31;34933;-86
2022/08/11 15:38:35;;;;;;;;;;;;;;;32.44;19.49;99260.16;4501862;31;35146;-85
2022/08/11 15:46:38;;;;;;;;;;;;;;;31.29;20.57;99254.25;4512180;31;34031;-85
2022/08/11 15:49:13;;;;;;;;;;;;;;;32.37;18.66;99240.09;4513814;31;34450;-85
2022/08/11 15:51:49;;;;;;;;;;;;;;;32.58;19.06;99244.81;4513850;31;34965;-86
2022/08/11 15:54:17;;;;;;;;;;;;;;;32.24;19.13;99242.00;4514280;31;34219;-86
2022/08/11 15:56:45;;;;;;;;;;;;;;;31.59;19.88;99243.19;4511993;31;33682;-87
2022/08/11 16:05:02;;;;;;;;;;;;;;;31.17;20.12;99244.44;4514734;31;34335;-86
2022/08/11 16:07:32;;;;;;;;;;;;;;;31.89;19.65;99233.91;4515627;31;34596;-86
2022/08/11 16:10:09;;;;;;;;;;;;;;;31.77;19.46;99242.81;4498214;31;34034;-86
2022/08/11 16:16:12;;;;;;;;;;;;;;;32.18;18.92;99240.63;4501084;31;33902;-86
2022/08/11 16:18:39;;;;;;;;;;;;;;;32.13;19.17;99233.91;4498821;31;34016;-85
2022/08/11 16:21:11;;;;;;;;;;;;;;;30.99;19.61;99239.44;4498582;31;34898;-85
2022/08/11 16:23:58;;;;;;;;;;;;;;;31.95;18.80;99230.78;4507444;31;34863;-86
2022/08/11 16:26:25;;;;;;;;;;;;;;;31.87;18.64;99238.53;4515407;31;34360;-86
2022/08/11 16:29:13;;;;;;;;;;;;;;;31.04;19.35;99244.44;4515274;31;33823;-87
2022/08/11 16:31:40;;;;;;;;;;;;;;;32.26;18.16;99236.50;4515099;31;34395;-86
2022/08/11 16:38:33;;;;;;;;;;;;;;;32.52;18.32;99232.72;4513736;31;34240;-86
2022/08/11 16:39:44;;;;;;;;;;;;;;;32.54;18.11;99229.91;4511331;31;35121;-86
2022/08/11 16:48:13;;;;;;;;;;;;;;;32.35;18.50;99231.31;4491345;31;34244;-86
2022/08/11 16:51:00;;;;;;;;;;;;;;;32.42;18.95;99235.25;4513856;31;34177;-87
2022/08/11 16:53:28;;;;;;;;;;;;;;;32.51;18.58;99228.34;4515279;31;34177;-87
2022/08/11 16:56:17;;;;;;;;;;;;;;;32.42;18.72;99231.72;4513585;31;34851;-87
2022/08/11 17:01:55;;;;;;;;;;;;;;;31.75;20.05;99240.25;4455784;32;33556;-87
2022/08/11 17:13:19;;;;;;;;;;;;;;;32.29;19.79;99234.44;4513976;31;34900;-85
2022/08/11 17:16:06;;;;;;;;;;;;;;;31.55;20.78;99240.84;4507142;31;33972;-86
2022/08/11 17:18:39;;;;;;;;;;;;;;;32.08;20.31;99225.34;4501219;31;34957;-92
2022/08/11 17:21:07;;;;;;;;;;;;;;;31.92;20.57;99234.53;4499145;31;33685;-86
2022/08/11 17:23:46;;;;;;;;;;;;;;;32.22;20.29;99225.16;4499148;31;35121;-84
2022/08/11 17:26:19;;;;;;;;;;;;;;;31.62;21.20;99229.56;4500928;31;34165;-87
2022/08/11 17:28:50;;;;;;;;;;;;;;;32.21;20.42;99234.19;4512990;31;34238;-86
2022/08/11 17:36:53;;;;;;;;;;;;;;;31.12;21.79;99246.59;4505886;31;34155;-87
2022/08/11 17:39:20;;;;;;;;;;;;;;;29.12;24.63;99258.00;4505309;31;34047;-88
2022/08/11 17:50:10;;;;;;;;;;;;;;;30.51;23.45;99273.91;4505266;31;34887;-88
2022/08/11 18:01:05;;;;;;;;;;;;;;;29.43;25.56;99289.84;4501717;31;35110;-85
2022/08/11 18:03:38;;;;;;;;;;;;;;;29.32;25.74;99289.66;4501615;31;33471;-86
2022/08/11 18:06:07;;;;;;;;;;;;;;;29.43;25.71;99292.50;4501861;31;34661;-86
